sensor_id;sensor_type;location;lat;lon;timestamp;pressure;altitude;pressure_sealevel;temperature;humidity
70954;BME280;58618;47.490;8.736;2023-04-06T00:02:20;96754.78;;;-0.23;98.51
70954;BME280;58618;47.490;8.736;2023-04-06T00:05:07;96751.88;;;-0.33;100.00
70954;BME280;58618;47.490;8.736;2023-04-06T00:07:55;96745.44;;;-0.29;98.43
70954;BME280;58618;47.490;8.736;2023-04-06T00:10:42;96741.94;;;-0.28;97.46
70954;BME280;58618;47.490;8.736;2023-04-06T00:13:30;96745.47;;;-0.43;97.25
70954;BME280;58618;47.490;8.736;2023-04-06T00:16:19;96740.00;;;-0.46;99.20
70954;BME280;58618;47.490;8.736;2023-04-06T00:19:07;96734.16;;;-0.40;99.36
70954;BME280;58618;47.490;8.736;2023-04-06T00:21:54;96743.88;;;-0.30;99.90
70954;BME280;58618;47.490;8.736;2023-04-06T00:24:41;96728.13;;;-0.46;99.36
70954;BME280;58618;47.490;8.736;2023-04-06T00:27:29;96746.22;;;-0.35;98.63
70954;BME280;58618;47.490;8.736;2023-04-06T00:30:16;96742.53;;;-0.33;100.00
70954;BME280;58618;47.490;8.736;2023-04-06T00:33:05;96740.38;;;-0.29;100.00
70954;BME280;58618;47.490;8.736;2023-04-06T00:35:53;96736.69;;;-0.47;100.00
70954;BME280;58618;47.490;8.736;2023-04-06T00:38:40;96731.84;;;-0.55;100.00
70954;BME280;58618;47.490;8.736;2023-04-06T00:41:28;96731.44;;;-0.78;100.00
70954;BME280;58618;47.490;8.736;2023-04-06T00:44:15;96734.56;;;-0.82;100.00
70954;BME280;58618;47.490;8.736;2023-04-06T00:47:03;96728.91;;;-0.78;100.00
70954;BME280;58618;47.490;8.736;2023-04-06T00:49:52;96731.06;;;-0.62;100.00
70954;BME280;58618;47.490;8.736;2023-04-06T00:52:39;96732.22;;;-0.71;100.00
70954;BME280;58618;47.490;8.736;2023-04-06T00:55:27;96726.19;;;-0.96;100.00
70954;BME280;58618;47.490;8.736;2023-04-06T00:58:14;96726.38;;;-1.04;100.00
70954;BME280;58618;47.490;8.736;2023-04-06T01:01:02;96721.31;;;-1.17;100.00
70954;BME280;58618;47.490;8.736;2023-04-06T01:03:49;96722.06;;;-1.10;100.00
70954;BME280;58618;47.490;8.736;2023-04-06T01:06:38;96719.75;;;-1.12;100.00
70954;BME280;58618;47.490;8.736;2023-04-06T01:09:27;96721.69;;;-1.20;100.00
70954;BME280;58618;47.490;8.736;2023-04-06T01:12:14;96717.41;;;-1.13;100.00
70954;BME280;58618;47.490;8.736;2023-04-06T01:15:02;96720.91;;;-1.27;100.00
70954;BME280;58618;47.490;8.736;2023-04-06T01:17:50;96712.31;;;-1.27;100.00
70954;BME280;58618;47.490;8.736;2023-04-06T01:20:37;96720.34;;;-1.16;100.00
70954;BME280;58618;47.490;8.736;2023-04-06T01:23:26;96712.75;;;-1.16;100.00
70954;BME280;58618;47.490;8.736;2023-04-06T01:26:13;96715.25;;;-1.30;100.00
70954;BME280;58618;47.490;8.736;2023-04-06T01:29:02;96714.28;;;-1.29;100.00
70954;BME280;58618;47.490;8.736;2023-04-06T01:31:49;96720.09;;;-1.35;100.00
70954;BME280;58618;47.490;8.736;2023-04-06T01:34:37;96712.50;;;-1.35;100.00
70954;BME280;58618;47.490;8.736;2023-04-06T01:37:24;96711.56;;;-1.34;100.00
70954;BME280;58618;47.490;8.736;2023-04-06T01:40:13;96706.66;;;-1.42;100.00
70954;BME280;58618;47.490;8.736;2023-04-06T01:43:01;96709.78;;;-1.40;100.00
70954;BME280;58618;47.490;8.736;2023-04-06T01:45:49;96709.41;;;-1.23;100.00
70954;BME280;58618;47.490;8.736;2023-04-06T01:48:37;96700.25;;;-1.31;100.00
70954;BME280;58618;47.490;8.736;2023-04-06T01:51:24;96706.28;;;-1.39;100.00
70954;BME280;58618;47.490;8.736;2023-04-06T01:54:12;96708.03;;;-1.39;100.00
70954;BME280;58618;47.490;8.736;2023-04-06T01:57:01;96703.38;;;-1.36;100.00
70954;BME280;58618;47.490;8.736;2023-04-06T01:59:49;96706.81;;;-1.56;100.00
70954;BME280;58618;47.490;8.736;2023-04-06T02:02:36;96706.81;;;-1.56;100.00
70954;BME280;58618;47.490;8.736;2023-04-06T02:05:24;96700.19;;;-1.57;100.00
70954;BME280;58618;47.490;8.736;2023-04-06T02:08:12;96700.22;;;-1.64;100.00
70954;BME280;58618;47.490;8.736;2023-04-06T02:10:59;96699.81;;;-1.61;100.00
70954;BME280;58618;47.490;8.736;2023-04-06T02:13:48;96702.34;;;-1.48;100.00
70954;BME280;58618;47.490;8.736;2023-04-06T02:16:35;96708.63;;;-1.44;100.00
70954;BME280;58618;47.490;8.736;2023-04-06T02:19:23;96702.19;;;-1.46;100.00
70954;BME280;58618;47.490;8.736;2023-04-06T02:22:10;96704.47;;;-1.58;100.00
70954;BME280;58618;47.490;8.736;2023-04-06T02:24:58;96707.56;;;-1.69;100.00
70954;BME280;58618;47.490;8.736;2023-04-06T02:27:45;96703.28;;;-1.68;100.00
70954;BME280;58618;47.490;8.736;2023-04-06T02:30:34;96696.69;;;-1.63;100.00
70954;BME280;58618;47.490;8.736;2023-04-06T02:33:21;96701.75;;;-1.69;100.00
70954;BME280;58618;47.490;8.736;2023-04-06T02:36:09;96700.22;;;-1.64;100.00
70954;BME280;58618;47.490;8.736;2023-04-06T02:38:56;96706.03;;;-1.57;100.00
70954;BME280;58618;47.490;8.736;2023-04-06T02:41:44;96697.44;;;-1.69;100.00
70954;BME280;58618;47.490;8.736;2023-04-06T02:44:31;96696.81;;;-1.84;100.00
70954;BME280;58618;47.490;8.736;2023-04-06T02:47:20;96695.81;;;-1.96;100.00
70954;BME280;58618;47.490;8.736;2023-04-06T02:50:08;96697.75;;;-1.98;100.00
70954;BME280;58618;47.490;8.736;2023-04-06T02:52:56;96702.41;;;-1.95;100.00
70954;BME280;58618;47.490;8.736;2023-04-06T02:55:43;96697.03;;;-1.79;100.00
70954;BME280;58618;47.490;8.736;2023-04-06T02:58:31;96695.09;;;-1.77;100.00
70954;BME280;58618;47.490;8.736;2023-04-06T03:01:18;96693.31;;;-1.83;100.00
70954;BME280;58618;47.490;8.736;2023-04-06T03:04:07;96696.44;;;-1.81;100.00
70954;BME280;58618;47.490;8.736;2023-04-06T03:06:55;96695.47;;;-1.80;100.00
70954;BME280;58618;47.490;8.736;2023-04-06T03:09:42;96700.34;;;-1.85;100.00
70954;BME280;58618;47.490;8.736;2023-04-06T03:12:29;96691.94;;;-1.92;100.00
70954;BME280;58618;47.490;8.736;2023-04-06T03:15:17;96688.00;;;-2.08;100.00
70954;BME280;58618;47.490;8.736;2023-04-06T03:18:04;96690.72;;;-2.03;100.00
70954;BME280;58618;47.490;8.736;2023-04-06T03:20:53;96691.94;;;-1.92;100.00
70954;BME280;58618;47.490;8.736;2023-04-06T03:23:41;96691.16;;;-1.93;100.00
70954;BME280;58618;47.490;8.736;2023-04-06T03:26:28;96691.88;;;-2.05;100.00
70954;BME280;58618;47.490;8.736;2023-04-06T03:29:15;96691.88;;;-2.12;100.00
70954;BME280;58618;47.490;8.736;2023-04-06T03:32:03;96695.75;;;-2.09;100.00
70954;BME280;58618;47.490;8.736;2023-04-06T03:34:50;96680.19;;;-2.13;100.00
70954;BME280;58618;47.490;8.736;2023-04-06T03:37:40;96704.69;;;-2.14;100.00
70954;BME280;58618;47.490;8.736;2023-04-06T03:40:27;96702.50;;;-2.17;100.00
70954;BME280;58618;47.490;8.736;2023-04-06T03:43:14;96695.69;;;-2.23;100.00
70954;BME280;58618;47.490;8.736;2023-04-06T03:46:02;96696.47;;;-2.22;100.00
70954;BME280;58618;47.490;8.736;2023-04-06T03:48:49;96694.88;;;-2.30;100.00
70954;BME280;58618;47.490;8.736;2023-04-06T03:51:36;96688.22;;;-2.37;100.00
70954;BME280;58618;47.490;8.736;2023-04-06T03:54:25;96708.84;;;-2.34;100.00
70954;BME280;58618;47.490;8.736;2023-04-06T03:57:13;96712.34;;;-2.35;100.00
70954;BME280;58618;47.490;8.736;2023-04-06T04:00:00;96689.03;;;-2.30;100.00
70954;BME280;58618;47.490;8.736;2023-04-06T04:02:48;96669.88;;;-2.52;100.00
70954;BME280;58618;47.490;8.736;2023-04-06T04:05:36;96705.72;;;-2.36;100.00
70954;BME280;58618;47.490;8.736;2023-04-06T04:08:24;96711.72;;;-2.37;100.00
70954;BME280;58618;47.490;8.736;2023-04-06T04:11:13;96704.13;;;-2.43;100.00
70954;BME280;58618;47.490;8.736;2023-04-06T04:14:01;96700.63;;;-2.42;100.00
70954;BME280;58618;47.490;8.736;2023-04-06T04:16:49;96707.63;;;-2.38;100.00
70954;BME280;58618;47.490;8.736;2023-04-06T04:19:36;96704.09;;;-2.50;100.00
70954;BME280;58618;47.490;8.736;2023-04-06T04:22:24;96696.88;;;-2.53;100.00
70954;BME280;58618;47.490;8.736;2023-04-06T04:25:11;96706.06;;;-2.45;100.00
70954;BME280;58618;47.490;8.736;2023-04-06T04:28:00;96708.34;;;-2.50;100.00
70954;BME280;58618;47.490;8.736;2023-04-06T04:30:48;96713.22;;;-2.49;100.00
70954;BME280;58618;47.490;8.736;2023-04-06T04:33:37;96710.66;;;-2.56;100.00
70954;BME280;58618;47.490;8.736;2023-04-06T04:36:24;96714.69;;;-2.61;100.00
70954;BME280;58618;47.490;8.736;2023-04-06T04:39:12;96719.13;;;-2.63;100.00
70954;BME280;58618;47.490;8.736;2023-04-06T04:41:59;96713.59;;;-2.52;100.00
70954;BME280;58618;47.490;8.736;2023-04-06T04:44:48;96719.38;;;-2.58;100.00
70954;BME280;58618;47.490;8.736;2023-04-06T04:47:36;96723.84;;;-2.60;100.00
70954;BME280;58618;47.490;8.736;2023-04-06T04:50:26;96719.13;;;-2.63;100.00
70954;BME280;58618;47.490;8.736;2023-04-06T04:53:13;96717.69;;;-2.51;100.00
70954;BME280;58618;47.490;8.736;2023-04-06T04:56:01;96727.66;;;-2.36;100.00
70954;BME280;58618;47.490;8.736;2023-04-06T04:58:48;96735.84;;;-2.34;100.00
70954;BME280;58618;47.490;8.736;2023-04-06T05:01:37;96728.28;;;-2.34;100.00
70954;BME280;58618;47.490;8.736;2023-04-06T05:04:24;96721.44;;;-2.40;100.00
70954;BME280;58618;47.490;8.736;2023-04-06T05:07:12;96732.91;;;-2.38;100.00
70954;BME280;58618;47.490;8.736;2023-04-06T05:10:01;96735.28;;;-2.30;100.00
70954;BME280;58618;47.490;8.736;2023-04-06T05:12:48;96738.69;;;-2.09;100.00
70954;BME280;58618;47.490;8.736;2023-04-06T05:15:36;96736.03;;;-2.01;100.00
70954;BME280;58618;47.490;8.736;2023-04-06T05:18:27;96738.13;;;-2.11;100.00
70954;BME280;58618;47.490;8.736;2023-04-06T05:21:14;96736.13;;;-2.16;100.00
70954;BME280;58618;47.490;8.736;2023-04-06T05:24:02;96740.41;;;-2.17;100.00
70954;BME280;58618;47.490;8.736;2023-04-06T05:26:49;96728.38;;;-2.15;100.00
70954;BME280;58618;47.490;8.736;2023-04-06T05:29:37;96752.25;;;-1.83;100.00
70954;BME280;58618;47.490;8.736;2023-04-06T05:32:24;96742.53;;;-1.79;100.00
70954;BME280;58618;47.490;8.736;2023-04-06T05:35:13;96741.41;;;-1.70;100.00
70954;BME280;58618;47.490;8.736;2023-04-06T05:38:01;96760.28;;;-1.66;100.00
70954;BME280;58618;47.490;8.736;2023-04-06T05:40:48;96760.09;;;-1.58;100.00
70954;BME280;58618;47.490;8.736;2023-04-06T05:43:36;96760.16;;;-1.45;100.00
70954;BME280;58618;47.490;8.736;2023-04-06T05:46:24;96768.38;;;-1.30;100.00
70954;BME280;58618;47.490;8.736;2023-04-06T05:49:11;96755.16;;;-1.18;100.00
70954;BME280;58618;47.490;8.736;2023-04-06T05:52:00;96771.75;;;-0.83;100.00
70954;BME280;58618;47.490;8.736;2023-04-06T05:54:47;96764.97;;;-0.76;99.36
70954;BME280;58618;47.490;8.736;2023-04-06T05:57:35;96767.69;;;-0.64;95.65
70954;BME280;58618;47.490;8.736;2023-04-06T06:00:23;96760.25;;;-0.53;96.53
70954;BME280;58618;47.490;8.736;2023-04-06T06:03:10;96756.31;;;-0.09;96.33
70954;BME280;58618;47.490;8.736;2023-04-06T06:06:02;96766.38;;;1.56;87.30
70954;BME280;58618;47.490;8.736;2023-04-06T06:08:51;96768.81;;;2.90;81.45
70954;BME280;58618;47.490;8.736;2023-04-06T06:11:39;96763.25;;;3.93;75.81
70954;BME280;58618;47.490;8.736;2023-04-06T06:14:27;96768.78;;;4.64;70.72
70954;BME280;58618;47.490;8.736;2023-04-06T06:17:14;96773.31;;;5.36;66.98
70954;BME280;58618;47.490;8.736;2023-04-06T06:20:02;96766.38;;;6.03;66.02
70954;BME280;58618;47.490;8.736;2023-04-06T06:22:49;96770.63;;;6.14;61.93
70954;BME280;58618;47.490;8.736;2023-04-06T06:25:38;96767.69;;;6.06;62.32
70954;BME280;58618;47.490;8.736;2023-04-06T06:28:26;96778.09;;;7.40;59.27
70954;BME280;58618;47.490;8.736;2023-04-06T06:31:14;96772.09;;;7.61;56.44
70954;BME280;58618;47.490;8.736;2023-04-06T06:34:01;96763.81;;;10.40;48.11
70954;BME280;58618;47.490;8.736;2023-04-06T06:36:48;96770.41;;;9.31;49.22
70954;BME280;58618;47.490;8.736;2023-04-06T06:39:37;96779.88;;;10.17;47.89
70954;BME280;58618;47.490;8.736;2023-04-06T06:42:26;96775.50;;;10.82;44.72
70954;BME280;58618;47.490;8.736;2023-04-06T06:45:13;96774.72;;;11.25;43.70
70954;BME280;58618;47.490;8.736;2023-04-06T06:48:01;96773.25;;;9.25;46.73
70954;BME280;58618;47.490;8.736;2023-04-06T06:50:49;96780.72;;;9.57;48.82
70954;BME280;58618;47.490;8.736;2023-04-06T06:53:36;96773.75;;;9.62;46.92
70954;BME280;58618;47.490;8.736;2023-04-06T06:56:23;96776.03;;;10.74;45.25
70954;BME280;58618;47.490;8.736;2023-04-06T06:59:14;96773.47;;;10.69;45.27
70954;BME280;58618;47.490;8.736;2023-04-06T07:02:02;96774.69;;;10.22;45.03
70954;BME280;58618;47.490;8.736;2023-04-06T07:04:49;96769.88;;;10.70;45.36
70954;BME280;58618;47.490;8.736;2023-04-06T07:07:37;96774.25;;;9.80;46.08
70954;BME280;58618;47.490;8.736;2023-04-06T07:10:24;96779.44;;;9.49;45.93
70954;BME280;58618;47.490;8.736;2023-04-06T07:13:12;96765.84;;;10.48;44.45
70954;BME280;58618;47.490;8.736;2023-04-06T07:16:05;96781.47;;;11.16;42.94
70954;BME280;58618;47.490;8.736;2023-04-06T07:18:53;96779.84;;;10.27;44.69
70954;BME280;58618;47.490;8.736;2023-04-06T07:21:40;96779.34;;;10.30;45.16
70954;BME280;58618;47.490;8.736;2023-04-06T07:24:28;96779.84;;;10.27;44.59
70954;BME280;58618;47.490;8.736;2023-04-06T07:27:15;96775.25;;;10.04;45.48
70954;BME280;58618;47.490;8.736;2023-04-06T07:30:03;96779.69;;;9.83;45.67
70954;BME280;58618;47.490;8.736;2023-04-06T07:32:53;96771.53;;;10.45;44.94
70954;BME280;58618;47.490;8.736;2023-04-06T07:35:41;96781.91;;;10.35;44.61
70954;BME280;58618;47.490;8.736;2023-04-06T07:38:29;96770.88;;;10.74;44.33
70954;BME280;58618;47.490;8.736;2023-04-06T07:41:16;96775.75;;;10.01;44.83
70954;BME280;58618;47.490;8.736;2023-04-06T07:44:04;96776.28;;;9.98;46.28
70954;BME280;58618;47.490;8.736;2023-04-06T07:46:51;96773.59;;;10.43;45.58
70954;BME280;58618;47.490;8.736;2023-04-06T07:49:40;96777.09;;;11.51;42.47
70954;BME280;58618;47.490;8.736;2023-04-06T07:52:27;96771.53;;;10.45;44.43
70954;BME280;58618;47.490;8.736;2023-04-06T07:55:15;96778.44;;;12.30;42.10
70954;BME280;58618;47.490;8.736;2023-04-06T07:58:02;96779.63;;;11.56;43.28
70954;BME280;58618;47.490;8.736;2023-04-06T08:00:49;96768.59;;;12.74;40.06
70954;BME280;58618;47.490;8.736;2023-04-06T08:03:37;96775.00;;;12.58;41.96
70954;BME280;58618;47.490;8.736;2023-04-06T08:06:27;96761.97;;;13.70;38.07
70954;BME280;58618;47.490;8.736;2023-04-06T08:09:14;96771.53;;;14.16;36.26
70954;BME280;58618;47.490;8.736;2023-04-06T08:12:02;96769.00;;;13.83;36.77
70954;BME280;58618;47.490;8.736;2023-04-06T08:14:49;96766.88;;;15.61;31.57
70954;BME280;58618;47.490;8.736;2023-04-06T08:17:36;96769.59;;;14.08;34.89
70954;BME280;58618;47.490;8.736;2023-04-06T08:20:24;96755.03;;;14.39;34.69
70954;BME280;58618;47.490;8.736;2023-04-06T08:23:12;96755.22;;;12.24;35.33
70954;BME280;58618;47.490;8.736;2023-04-06T08:26:00;96755.28;;;13.37;37.83
70954;BME280;58618;47.490;8.736;2023-04-06T08:28:47;96756.88;;;13.65;35.65
70954;BME280;58618;47.490;8.736;2023-04-06T08:31:35;96756.59;;;12.59;37.54
70954;BME280;58618;47.490;8.736;2023-04-06T08:34:23;96757.34;;;12.60;39.71
70954;BME280;58618;47.490;8.736;2023-04-06T08:37:10;96752.34;;;12.87;37.45
70954;BME280;58618;47.490;8.736;2023-04-06T08:39:59;96754.16;;;13.05;38.51
70954;BME280;58618;47.490;8.736;2023-04-06T08:42:50;96760.28;;;13.47;38.36
70954;BME280;58618;47.490;8.736;2023-04-06T08:45:40;96751.50;;;13.75;35.17
70954;BME280;58618;47.490;8.736;2023-04-06T08:48:28;96750.50;;;13.06;34.84
70954;BME280;58618;47.490;8.736;2023-04-06T08:51:15;96753.59;;;13.08;36.74
70954;BME280;58618;47.490;8.736;2023-04-06T08:54:03;96752.97;;;13.49;36.40
70954;BME280;58618;47.490;8.736;2023-04-06T08:56:52;96752.09;;;13.86;36.66
70954;BME280;58618;47.490;8.736;2023-04-06T08:59:42;96744.94;;;14.10;34.87
70954;BME280;58618;47.490;8.736;2023-04-06T09:02:30;96750.28;;;13.40;37.14
70954;BME280;58618;47.490;8.736;2023-04-06T09:05:18;96748.22;;;13.56;36.70
70954;BME280;58618;47.490;8.736;2023-04-06T09:08:06;96744.56;;;13.25;36.11
70954;BME280;58618;47.490;8.736;2023-04-06T09:10:53;96743.34;;;13.68;34.84
70954;BME280;58618;47.490;8.736;2023-04-06T09:13:47;96740.31;;;13.15;39.75
70954;BME280;58618;47.490;8.736;2023-04-06T09:16:39;96745.94;;;13.68;35.02
70954;BME280;58618;47.490;8.736;2023-04-06T09:19:26;96738.97;;;13.50;34.20
70954;BME280;58618;47.490;8.736;2023-04-06T09:22:14;96740.72;;;12.66;40.24
70954;BME280;58618;47.490;8.736;2023-04-06T09:25:01;96730.38;;;12.85;38.19
70954;BME280;58618;47.490;8.736;2023-04-06T09:27:58;96712.72;;;13.05;35.07
70954;BME280;58618;47.490;8.736;2023-04-06T09:30:49;96715.63;;;12.66;34.89
70954;BME280;58618;47.490;8.736;2023-04-06T09:33:37;96731.31;;;12.33;37.01
70954;BME280;58618;47.490;8.736;2023-04-06T09:36:32;96730.44;;;12.18;36.31
70954;BME280;58618;47.490;8.736;2023-04-06T09:39:20;96728.16;;;11.93;37.28
70954;BME280;58618;47.490;8.736;2023-04-06T09:42:11;96721.19;;;11.60;37.50
70954;BME280;58618;47.490;8.736;2023-04-06T09:44:58;96722.88;;;11.46;41.27
70954;BME280;58618;47.490;8.736;2023-04-06T09:47:48;96729.59;;;11.47;39.64
70954;BME280;58618;47.490;8.736;2023-04-06T09:50:36;96724.44;;;11.75;36.65
70954;BME280;58618;47.490;8.736;2023-04-06T09:53:25;96726.88;;;11.62;38.24
70954;BME280;58618;47.490;8.736;2023-04-06T09:56:17;96726.41;;;11.55;38.85
70954;BME280;58618;47.490;8.736;2023-04-06T09:59:09;96723.19;;;11.73;37.76
70954;BME280;58618;47.490;8.736;2023-04-06T10:01:58;96718.19;;;11.48;38.79
70954;BME280;58618;47.490;8.736;2023-04-06T10:04:52;96723.88;;;11.50;40.08
70954;BME280;58618;47.490;8.736;2023-04-06T10:07:41;96730.97;;;11.68;38.61
70954;BME280;58618;47.490;8.736;2023-04-06T10:10:30;96725.78;;;11.68;36.36
70954;BME280;58618;47.490;8.736;2023-04-06T10:13:18;96704.75;;;11.51;36.49
70954;BME280;58618;47.490;8.736;2023-04-06T10:16:07;96717.03;;;11.35;35.24
70954;BME280;58618;47.490;8.736;2023-04-06T10:19:00;96715.31;;;11.25;37.27
70954;BME280;58618;47.490;8.736;2023-04-06T10:21:54;96719.56;;;11.06;37.93
70954;BME280;58618;47.490;8.736;2023-04-06T10:24:42;96711.38;;;10.99;36.97
70954;BME280;58618;47.490;8.736;2023-04-06T10:27:30;96695.38;;;10.97;37.19
70954;BME280;58618;47.490;8.736;2023-04-06T10:30:19;96715.31;;;11.25;39.09
70954;BME280;58618;47.490;8.736;2023-04-06T10:33:12;96727.16;;;11.31;36.64
70954;BME280;58618;47.490;8.736;2023-04-06T10:36:09;96720.44;;;11.30;40.49
70954;BME280;58618;47.490;8.736;2023-04-06T10:38:59;96718.66;;;10.92;37.89
70954;BME280;58618;47.490;8.736;2023-04-06T10:41:48;96721.59;;;11.43;37.88
70954;BME280;58618;47.490;8.736;2023-04-06T10:44:42;96713.16;;;10.65;36.49
70954;BME280;58618;47.490;8.736;2023-04-06T10:47:38;96698.28;;;10.90;38.16
70954;BME280;58618;47.490;8.736;2023-04-06T10:50:26;96718.03;;;11.10;38.22
70954;BME280;58618;47.490;8.736;2023-04-06T10:53:21;96719.78;;;11.43;41.40
70954;BME280;58618;47.490;8.736;2023-04-06T10:56:11;96707.75;;;11.63;38.03
70954;BME280;58618;47.490;8.736;2023-04-06T10:58:59;96713.06;;;11.76;35.90
70954;BME280;58618;47.490;8.736;2023-04-06T11:01:47;96708.09;;;11.80;36.64
70954;BME280;58618;47.490;8.736;2023-04-06T11:04:35;96711.53;;;11.99;34.61
70954;BME280;58618;47.490;8.736;2023-04-06T11:07:23;96714.19;;;11.94;39.92
70954;BME280;58618;47.490;8.736;2023-04-06T11:10:11;96708.09;;;11.80;38.07
70954;BME280;58618;47.490;8.736;2023-04-06T11:13:00;96700.47;;;11.65;35.72
70954;BME280;58618;47.490;8.736;2023-04-06T11:15:47;96704.22;;;11.54;36.68
70954;BME280;58618;47.490;8.736;2023-04-06T11:18:35;96699.03;;;11.54;39.26
70954;BME280;58618;47.490;8.736;2023-04-06T11:21:33;96708.19;;;11.70;34.96
70954;BME280;58618;47.490;8.736;2023-04-06T11:24:22;96688.94;;;11.57;34.85
70954;BME280;58618;47.490;8.736;2023-04-06T11:27:10;96695.78;;;11.72;34.93
70954;BME280;58618;47.490;8.736;2023-04-06T11:29:59;96686.22;;;11.72;39.25
70954;BME280;58618;47.490;8.736;2023-04-06T11:32:46;96689.97;;;11.85;35.22
70954;BME280;58618;47.490;8.736;2023-04-06T11:35:34;96688.44;;;11.84;34.55
70954;BME280;58618;47.490;8.736;2023-04-06T11:38:21;96688.13;;;11.62;32.95
70954;BME280;58618;47.490;8.736;2023-04-06T11:41:09;96679.81;;;11.65;32.64
70954;BME280;58618;47.490;8.736;2023-04-06T11:43:56;96684.13;;;11.74;34.75
70954;BME280;58618;47.490;8.736;2023-04-06T11:46:52;96676.63;;;11.78;33.52
70954;BME280;58618;47.490;8.736;2023-04-06T11:49:42;96680.41;;;12.09;33.96
70954;BME280;58618;47.490;8.736;2023-04-06T11:52:30;96681.38;;;12.13;33.17
70954;BME280;58618;47.490;8.736;2023-04-06T11:55:18;96667.59;;;11.75;34.94
70954;BME280;58618;47.490;8.736;2023-04-06T11:58:06;96661.16;;;11.73;36.67
70954;BME280;58618;47.490;8.736;2023-04-06T12:00:53;96662.84;;;12.06;36.45
70954;BME280;58618;47.490;8.736;2023-04-06T12:03:42;96651.88;;;12.14;33.90
70954;BME280;58618;47.490;8.736;2023-04-06T12:06:29;96651.00;;;12.00;33.23
70954;BME280;58618;47.490;8.736;2023-04-06T12:09:17;96656.19;;;12.00;33.92
70954;BME280;58618;47.490;8.736;2023-04-06T12:12:05;96654.94;;;11.98;34.42
70954;BME280;58618;47.490;8.736;2023-04-06T12:14:52;96650.03;;;11.96;33.77
70954;BME280;58618;47.490;8.736;2023-04-06T12:17:40;96649.06;;;11.68;33.51
70954;BME280;58618;47.490;8.736;2023-04-06T12:20:28;96653.97;;;11.65;34.63
70954;BME280;58618;47.490;8.736;2023-04-06T12:23:16;96648.25;;;11.73;32.38
70954;BME280;58618;47.490;8.736;2023-04-06T12:26:03;96651.13;;;11.90;32.37
70954;BME280;58618;47.490;8.736;2023-04-06T12:28:51;96643.22;;;12.05;33.67
70954;BME280;58618;47.490;8.736;2023-04-06T12:31:39;96644.97;;;12.10;33.37
70954;BME280;58618;47.490;8.736;2023-04-06T12:34:26;96632.50;;;11.93;33.02
70954;BME280;58618;47.490;8.736;2023-04-06T12:37:15;96640.19;;;11.98;32.55
70954;BME280;58618;47.490;8.736;2023-04-06T12:40:04;96642.59;;;12.13;33.32
70954;BME280;58618;47.490;8.736;2023-04-06T12:42:51;96631.13;;;12.19;32.03
70954;BME280;58618;47.490;8.736;2023-04-06T12:45:39;96635.59;;;12.33;33.56
70954;BME280;58618;47.490;8.736;2023-04-06T12:48:27;96621.34;;;12.35;34.61
70954;BME280;58618;47.490;8.736;2023-04-06T12:51:14;96633.72;;;12.57;34.44
70954;BME280;58618;47.490;8.736;2023-04-06T12:54:05;96625.63;;;12.63;31.06
70954;BME280;58618;47.490;8.736;2023-04-06T12:56:53;96630.00;;;12.63;30.27
70954;BME280;58618;47.490;8.736;2023-04-06T12:59:42;96628.25;;;12.77;29.32
70954;BME280;58618;47.490;8.736;2023-04-06T13:02:30;96642.81;;;12.73;33.02
70954;BME280;58618;47.490;8.736;2023-04-06T13:05:18;96624.44;;;12.88;31.07
70954;BME280;58618;47.490;8.736;2023-04-06T13:08:06;96632.28;;;12.83;30.21
70954;BME280;58618;47.490;8.736;2023-04-06T13:10:57;96630.16;;;12.85;32.58
70954;BME280;58618;47.490;8.736;2023-04-06T13:13:45;96626.00;;;12.89;31.20
70954;BME280;58618;47.490;8.736;2023-04-06T13:16:32;96622.00;;;13.10;31.41
70954;BME280;58618;47.490;8.736;2023-04-06T13:19:20;96619.56;;;13.33;31.20
70954;BME280;58618;47.490;8.736;2023-04-06T13:22:07;96618.03;;;13.59;31.87
70954;BME280;58618;47.490;8.736;2023-04-06T13:24:55;96613.25;;;13.66;30.90
70954;BME280;58618;47.490;8.736;2023-04-06T13:27:44;96614.59;;;13.50;28.61
70954;BME280;58618;47.490;8.736;2023-04-06T13:30:33;96602.88;;;13.25;30.08
70954;BME280;58618;47.490;8.736;2023-04-06T13:33:21;96602.41;;;13.37;30.29
70954;BME280;58618;47.490;8.736;2023-04-06T13:36:09;96606.91;;;13.45;34.28
70954;BME280;58618;47.490;8.736;2023-04-06T13:38:56;96606.72;;;13.69;29.01
70954;BME280;58618;47.490;8.736;2023-04-06T13:41:44;96605.75;;;13.78;27.30
70954;BME280;58618;47.490;8.736;2023-04-06T13:44:32;96604.03;;;13.60;28.06
70954;BME280;58618;47.490;8.736;2023-04-06T13:47:20;96583.88;;;13.71;26.97
70954;BME280;58618;47.490;8.736;2023-04-06T13:50:08;96596.19;;;14.01;26.97
70954;BME280;58618;47.490;8.736;2023-04-06T13:52:56;96590.44;;;14.04;31.26
70954;BME280;58618;47.490;8.736;2023-04-06T13:55:43;96593.59;;;14.15;30.03
70954;BME280;58618;47.490;8.736;2023-04-06T13:58:31;96593.00;;;14.18;31.44
70954;BME280;58618;47.490;8.736;2023-04-06T14:01:19;96592.38;;;14.34;29.72
70954;BME280;58618;47.490;8.736;2023-04-06T14:04:07;96588.19;;;14.25;29.56
70954;BME280;58618;47.490;8.736;2023-04-06T14:06:54;96592.66;;;14.11;32.39
70954;BME280;58618;47.490;8.736;2023-04-06T14:09:41;96589.13;;;14.29;26.96
70954;BME280;58618;47.490;8.736;2023-04-06T14:12:29;96577.97;;;14.42;28.14
70954;BME280;58618;47.490;8.736;2023-04-06T14:15:17;96578.03;;;14.51;27.54
70954;BME280;58618;47.490;8.736;2023-04-06T14:18:07;96577.88;;;13.98;28.04
70954;BME280;58618;47.490;8.736;2023-04-06T14:20:54;96571.75;;;13.93;28.75
70954;BME280;58618;47.490;8.736;2023-04-06T14:23:42;96579.06;;;13.64;29.61
70954;BME280;58618;47.490;8.736;2023-04-06T14:26:30;96576.09;;;13.84;29.46
70954;BME280;58618;47.490;8.736;2023-04-06T14:29:18;96583.31;;;13.74;30.68
70954;BME280;58618;47.490;8.736;2023-04-06T14:32:05;96573.88;;;13.64;30.97
70954;BME280;58618;47.490;8.736;2023-04-06T14:34:54;96581.09;;;13.67;30.41
70954;BME280;58618;47.490;8.736;2023-04-06T14:37:42;96565.44;;;13.72;30.59
70954;BME280;58618;47.490;8.736;2023-04-06T14:40:29;96570.44;;;13.55;31.49
70954;BME280;58618;47.490;8.736;2023-04-06T14:43:16;96577.94;;;13.43;32.68
70954;BME280;58618;47.490;8.736;2023-04-06T14:46:04;96580.44;;;13.48;32.28
70954;BME280;58618;47.490;8.736;2023-04-06T14:48:54;96584.72;;;13.39;32.53